createdAt,value
2022-11-29T00:01:15.194Z,32.78
2022-11-29T00:03:42.572Z,32.60
2022-11-29T00:06:15.058Z,32.58
2022-11-29T00:08:42.670Z,32.83
2022-11-29T00:11:14.587Z,37.45
2022-11-29T00:13:41.804Z,31.98
2022-11-29T00:16:10.153Z,33.23
2022-11-29T00:18:37.552Z,35.30
2022-11-29T00:21:06.366Z,37.30
2022-11-29T00:23:33.918Z,35.50
2022-11-29T00:26:05.410Z,36.17
2022-11-29T00:28:32.933Z,36.33
2022-11-29T00:31:00.427Z,37.10
2022-11-29T00:33:27.877Z,34.20
2022-11-29T00:35:55.119Z,34.63
2022-11-29T00:38:22.392Z,41.33
2022-11-29T00:40:52.975Z,34.90
2022-11-29T00:43:20.326Z,40.38
2022-11-29T00:45:47.547Z,39.80
2022-11-29T00:48:14.875Z,34.72
2022-11-29T00:50:42.254Z,34.63
2022-11-29T00:53:09.682Z,40.70
2022-11-29T00:55:36.950Z,33.75
2022-11-29T00:58:04.308Z,35.03
2022-11-29T01:00:31.535Z,34.97
2022-11-29T01:02:58.790Z,35.40
2022-11-29T01:05:26.007Z,38.20
2022-11-29T01:07:53.346Z,36.80
2022-11-29T01:10:20.788Z,39.25
2022-11-29T01:12:48.084Z,41.97
2022-11-29T01:15:15.327Z,44.05
2022-11-29T01:17:42.826Z,33.13
2022-11-29T01:20:11.452Z,36.47
2022-11-29T01:22:38.916Z,40.35
2022-11-29T01:25:07.422Z,44.15
2022-11-29T01:27:34.888Z,44.03
2022-11-29T01:30:02.143Z,38.90
2022-11-29T01:32:29.420Z,43.67
2022-11-29T01:34:56.621Z,41.30
2022-11-29T01:37:24.041Z,38.20
2022-11-29T01:39:51.247Z,39.95
2022-11-29T01:42:18.803Z,39.80
2022-11-29T01:44:46.270Z,40.15
2022-11-29T01:47:13.880Z,45.55
2022-11-29T01:49:42.805Z,40.08
2022-11-29T01:52:19.446Z,34.80
2022-11-29T01:54:48.595Z,39.73
2022-11-29T01:57:15.819Z,35.22
2022-11-29T01:59:44.787Z,44.88
2022-11-29T02:02:39.454Z,39.95
2022-11-29T02:05:07.399Z,38.97
2022-11-29T02:07:34.772Z,35.07
2022-11-29T02:10:02.325Z,41.75
2022-11-29T02:12:38.013Z,39.28
2022-11-29T02:15:36.356Z,41.05
2022-11-29T02:18:07.103Z,33.20
2022-11-29T02:20:46.516Z,38.33
2022-11-29T02:23:51.332Z,34.72
2022-11-29T02:27:00.245Z,34.88
2022-11-29T02:30:05.098Z,31.00
2022-11-29T02:32:41.096Z,35.03
2022-11-29T02:35:42.117Z,41.30
2022-11-29T02:38:18.313Z,31.67
2022-11-29T02:41:09.974Z,39.03
2022-11-29T02:44:06.524Z,34.40
2022-11-29T02:46:39.529Z,38.15
2022-11-29T02:49:24.929Z,33.77
2022-11-29T02:52:59.739Z,37.30
2022-11-29T02:56:04.821Z,39.97
2022-11-29T02:59:19.846Z,38.65
2022-11-29T03:02:05.641Z,37.80
2022-11-29T03:04:58.467Z,32.57
2022-11-29T03:07:35.952Z,32.67
2022-11-29T03:10:18.475Z,38.92
2022-11-29T03:12:47.775Z,38.10
2022-11-29T03:15:31.818Z,39.00
2022-11-29T03:18:20.440Z,34.83
2022-11-29T03:21:06.167Z,37.20
2022-11-29T03:23:57.531Z,40.00
2022-11-29T03:26:30.242Z,36.92
2022-11-29T03:29:10.401Z,36.25
2022-11-29T03:31:39.139Z,40.40
2022-11-29T03:34:18.505Z,38.97
2022-11-29T03:37:02.629Z,40.40
2022-11-29T03:39:45.054Z,34.10
2022-11-29T03:42:19.837Z,46.70
2022-11-29T03:44:51.419Z,40.63
2022-11-29T03:47:22.253Z,36.45
2022-11-29T03:50:16.855Z,39.92
2022-11-29T03:53:13.158Z,44.65
2022-11-29T03:55:54.982Z,37.38
2022-11-29T03:58:53.091Z,44.33
2022-11-29T04:01:38.876Z,36.47
2022-11-29T04:04:24.976Z,34.38
2022-11-29T04:07:00.884Z,40.47
2022-11-29T04:09:39.327Z,37.80
2022-11-29T04:12:18.793Z,39.37
2022-11-29T04:15:01.048Z,35.15
2022-11-29T04:17:31.160Z,39.80
2022-11-29T04:20:21.686Z,42.08
2022-11-29T04:23:07.094Z,37.58
2022-11-29T04:25:34.427Z,45.33
2022-11-29T04:28:40.696Z,42.20
2022-11-29T04:31:55.982Z,39.88
2022-11-29T04:34:35.302Z,37.75
2022-11-29T04:37:08.491Z,45.28
2022-11-29T04:39:58.309Z,35.77
2022-11-29T04:42:37.727Z,42.70
2022-11-29T04:45:13.799Z,39.17
2022-11-29T04:48:02.756Z,39.65
2022-11-29T04:50:48.884Z,42.30
2022-11-29T04:53:28.638Z,37.23
2022-11-29T04:56:33.413Z,44.22
2022-11-29T04:59:20.882Z,39.85
2022-11-29T05:02:10.048Z,40.85
2022-11-29T05:05:31.163Z,37.40
2022-11-29T05:08:31.980Z,36.93
2022-11-29T05:11:27.551Z,37.22
2022-11-29T05:14:28.797Z,36.92
2022-11-29T05:17:20.600Z,40.28
2022-11-29T05:20:15.711Z,40.15
2022-11-29T05:23:16.359Z,41.20
2022-11-29T05:26:03.882Z,35.72
2022-11-29T05:29:03.662Z,39.75
2022-11-29T05:31:52.449Z,31.67
2022-11-29T05:34:34.855Z,45.83
2022-11-29T05:37:11.988Z,44.30
2022-11-29T05:40:08.642Z,39.28
2022-11-29T05:42:39.120Z,40.75
2022-11-29T05:45:24.806Z,39.38
2022-11-29T05:48:05.327Z,41.75
2022-11-29T05:50:51.122Z,38.00
2022-11-29T05:53:22.482Z,36.30
2022-11-29T05:56:04.592Z,43.35
2022-11-29T05:58:43.670Z,40.88
2022-11-29T06:01:31.798Z,41.20
2022-11-29T06:04:00.502Z,41.93
2022-11-29T06:06:34.743Z,41.20
2022-11-29T06:09:06.484Z,44.25
2022-11-29T06:11:44.775Z,42.08
2022-11-29T06:14:47.588Z,41.75
2022-11-29T06:17:34.254Z,42.30
2022-11-29T06:20:30.129Z,42.70
2022-11-29T06:23:19.335Z,39.22
2022-11-29T06:26:07.537Z,46.75
2022-11-29T06:29:01.882Z,42.65
2022-11-29T06:31:38.824Z,42.07
2022-11-29T06:34:15.403Z,43.95
2022-11-29T06:36:48.287Z,38.22
2022-11-29T06:39:15.900Z,41.95
2022-11-29T06:41:43.289Z,39.63
2022-11-29T06:44:11.172Z,41.57
2022-11-29T06:46:55.553Z,46.92
2022-11-29T06:49:27.255Z,41.80
2022-11-29T06:52:25.615Z,43.03
2022-11-29T06:55:01.466Z,42.33
2022-11-29T06:57:39.652Z,40.07
2022-11-29T07:00:24.119Z,40.65
2022-11-29T07:03:13.250Z,44.03
2022-11-29T07:05:42.857Z,37.53
2022-11-29T07:08:16.011Z,39.58
2022-11-29T07:10:43.989Z,36.90
2022-11-29T07:13:13.809Z,40.17
2022-11-29T07:16:25.453Z,36.95
2022-11-29T07:19:14.685Z,34.10
2022-11-29T07:22:00.283Z,35.58
2022-11-29T07:25:02.713Z,38.73
2022-11-29T07:27:35.421Z,36.17
2022-11-29T07:30:19.972Z,37.72
2022-11-29T07:32:58.719Z,35.33
2022-11-29T07:35:52.470Z,37.67
2022-11-29T07:38:31.760Z,37.53
2022-11-29T07:41:07.623Z,34.97
2022-11-29T07:44:13.206Z,34.05
2022-11-29T07:46:40.616Z,42.08
2022-11-29T07:49:10.428Z,25.90
2022-11-29T07:51:37.953Z,40.00
2022-11-29T07:54:05.896Z,36.53
2022-11-29T07:56:33.239Z,36.85
2022-11-29T07:59:00.554Z,34.35
2022-11-29T08:01:28.925Z,33.15
2022-11-29T08:03:56.330Z,34.93
2022-11-29T08:06:25.597Z,35.40
2022-11-29T08:08:53.941Z,37.03
2022-11-29T08:11:22.289Z,36.78
2022-11-29T08:13:50.303Z,33.70
2022-11-29T08:16:18.438Z,36.70
2022-11-29T08:18:46.121Z,35.22
2022-11-29T08:21:18.125Z,33.38
2022-11-29T08:23:49.375Z,24.60
2022-11-29T08:26:17.675Z,33.42
2022-11-29T08:28:45.034Z,32.83
2022-11-29T08:31:13.097Z,34.85
2022-11-29T08:33:41.703Z,38.10
2022-11-29T08:36:14.740Z,32.35
2022-11-29T08:38:42.343Z,29.98
2022-11-29T08:41:14.268Z,32.77
2022-11-29T08:43:42.212Z,30.02
2022-11-29T08:46:18.315Z,35.13
2022-11-29T08:48:49.638Z,36.40
2022-11-29T08:51:17.224Z,26.65
2022-11-29T08:53:46.603Z,26.10
2022-11-29T08:57:10.028Z,23.55
2022-11-29T08:59:08.893Z,27.50
2022-11-29T09:01:36.558Z,22.10
2022-11-29T09:04:06.047Z,29.77
2022-11-29T09:06:37.744Z,27.93
2022-11-29T09:09:05.610Z,31.40
2022-11-29T09:11:34.068Z,22.85
2022-11-29T09:14:03.258Z,20.13
2022-11-29T09:16:33.234Z,34.92
2022-11-29T09:19:01.105Z,26.87
2022-11-29T09:21:30.431Z,27.95
2022-11-29T09:24:00.173Z,33.22
2022-11-29T09:26:31.175Z,28.02
2022-11-29T09:29:01.505Z,23.77
2022-11-29T09:31:30.728Z,27.47
2022-11-29T09:33:59.226Z,26.98
2022-11-29T09:36:30.166Z,29.92
2022-11-29T09:38:58.513Z,25.35
2022-11-29T09:42:03.401Z,29.13
2022-11-29T09:44:54.865Z,32.07
2022-11-29T09:47:35.383Z,33.50
2022-11-29T09:50:20.563Z,28.30
2022-11-29T09:52:47.902Z,23.67
2022-11-29T09:55:48.015Z,26.27
2022-11-29T09:58:21.256Z,31.73
2022-11-29T10:00:51.024Z,31.67
2022-11-29T10:03:31.876Z,30.33
2022-11-29T10:06:05.633Z,31.65
2022-11-29T10:08:45.662Z,32.00
2022-11-29T10:11:20.566Z,31.63
2022-11-29T10:13:53.757Z,31.55
2022-11-29T10:16:31.899Z,33.13
2022-11-29T10:19:04.324Z,29.92
2022-11-29T10:21:37.055Z,29.50
2022-11-29T10:24:07.304Z,31.20
2022-11-29T10:26:35.536Z,30.23
2022-11-29T10:29:03.192Z,37.08
2022-11-29T10:31:36.276Z,31.05
2022-11-29T10:34:11.877Z,34.78
2022-11-29T10:36:44.826Z,31.07
2022-11-29T10:39:39.785Z,34.38
2022-11-29T10:42:29.986Z,32.47
2022-11-29T10:44:57.716Z,34.60
2022-11-29T10:47:26.963Z,29.65
2022-11-29T10:49:55.477Z,32.47
2022-11-29T10:52:23.065Z,30.42
2022-11-29T10:54:51.513Z,32.00
2022-11-29T10:57:23.004Z,30.63
2022-11-29T11:00:20.553Z,28.25
2022-11-29T11:02:48.014Z,24.30
2022-11-29T11:05:19.210Z,28.58
2022-11-29T11:07:48.296Z,29.70
2022-11-29T11:10:29.383Z,26.88
2022-11-29T11:13:17.009Z,28.25
2022-11-29T11:15:44.575Z,28.83
2022-11-29T11:18:25.314Z,21.80
2022-11-29T11:20:54.020Z,25.85
2022-11-29T11:23:25.937Z,23.98
2022-11-29T11:26:12.953Z,28.58
2022-11-29T11:29:02.299Z,28.80
2022-11-29T11:31:34.992Z,24.45
2022-11-29T11:34:31.654Z,24.52
2022-11-29T11:37:32.010Z,25.77
2022-11-29T11:40:01.456Z,28.08
2022-11-29T11:42:37.305Z,26.70
2022-11-29T11:45:11.801Z,29.98
2022-11-29T11:47:48.149Z,28.85
2022-11-29T11:50:43.584Z,22.38
2022-11-29T11:53:37.746Z,26.10
2022-11-29T11:56:07.108Z,31.03
2022-11-29T11:58:43.783Z,27.65
2022-11-29T12:01:31.060Z,25.25
2022-11-29T12:04:03.253Z,28.30
2022-11-29T12:06:59.161Z,25.90
2022-11-29T12:09:41.085Z,24.73
2022-11-29T12:12:08.831Z,27.27
2022-11-29T12:14:54.913Z,26.85
2022-11-29T12:17:35.760Z,26.02
2022-11-29T12:20:21.878Z,21.98
2022-11-29T12:23:12.825Z,23.73
2022-11-29T12:25:51.060Z,26.55
2022-11-29T12:28:20.841Z,29.65
2022-11-29T12:31:08.735Z,26.38
2022-11-29T12:33:41.936Z,26.85
2022-11-29T12:36:39.474Z,26.27
2022-11-29T12:39:37.655Z,28.13
2022-11-29T12:42:18.250Z,27.45
2022-11-29T12:44:51.716Z,26.17
2022-11-29T12:47:50.356Z,24.58
2022-11-29T12:50:22.294Z,28.20
2022-11-29T12:53:51.655Z,24.13
2022-11-29T12:56:32.410Z,22.23
2022-11-29T12:59:20.341Z,27.45
2022-11-29T13:02:04.445Z,25.15
2022-11-29T13:04:36.696Z,24.23
2022-11-29T13:07:34.394Z,22.67
2022-11-29T13:10:23.479Z,25.20
2022-11-29T13:13:05.279Z,26.75
2022-11-29T13:15:43.426Z,27.98
2022-11-29T13:18:53.738Z,25.43
2022-11-29T13:21:27.111Z,23.23
2022-11-29T13:24:08.884Z,28.58
2022-11-29T13:26:42.555Z,23.27
2022-11-29T13:29:16.815Z,22.88
2022-11-29T13:31:46.184Z,23.43
2022-11-29T13:34:31.253Z,23.02
2022-11-29T13:37:35.268Z,26.42
2022-11-29T13:40:17.717Z,24.85
2022-11-29T13:43:01.557Z,23.75
2022-11-29T13:45:34.676Z,22.47
2022-11-29T13:48:02.424Z,25.73
2022-11-29T13:50:36.220Z,22.02
2022-11-29T13:53:24.637Z,24.95
2022-11-29T13:56:01.307Z,28.95
2022-11-29T13:58:28.795Z,29.23
2022-11-29T14:01:02.179Z,26.13
2022-11-29T14:03:31.950Z,24.27
2022-11-29T14:06:02.242Z,26.80
2022-11-29T14:09:01.999Z,27.05
2022-11-29T14:11:28.731Z,26.27
2022-11-29T14:14:09.148Z,26.42
2022-11-29T14:16:45.361Z,29.42
2022-11-29T14:19:30.062Z,26.60
2022-11-29T14:22:03.128Z,27.33
2022-11-29T14:24:36.204Z,28.13
2022-11-29T14:27:07.300Z,28.63
2022-11-29T14:29:49.665Z,27.30
2022-11-29T14:32:46.533Z,30.02
2022-11-29T14:35:17.155Z,28.02
2022-11-29T14:37:55.943Z,33.90
2022-11-29T14:40:35.420Z,26.75
2022-11-29T14:43:02.990Z,24.90
2022-11-29T14:45:32.136Z,25.33
2022-11-29T14:47:59.513Z,31.73
2022-11-29T14:50:37.494Z,24.13
2022-11-29T14:53:28.752Z,26.73
2022-11-29T14:56:31.144Z,27.75
2022-11-29T14:59:35.868Z,25.30
2022-11-29T15:02:07.078Z,28.10
2022-11-29T15:04:35.044Z,25.10
2022-11-29T15:07:02.299Z,24.70
2022-11-29T15:09:29.644Z,26.38
2022-11-29T15:11:58.901Z,26.35
2022-11-29T15:14:36.780Z,28.98
2022-11-29T15:17:15.955Z,33.43
2022-11-29T15:20:01.877Z,26.98
2022-11-29T15:22:36.873Z,30.40
2022-11-29T15:25:14.285Z,26.30
2022-11-29T15:28:17.424Z,29.30
2022-11-29T15:30:44.839Z,28.00
2022-11-29T15:33:22.984Z,28.88
2022-11-29T15:36:03.961Z,31.48
2022-11-29T15:38:43.157Z,36.83
2022-11-29T15:41:28.541Z,37.78
2022-11-29T15:44:03.767Z,30.50
2022-11-29T15:46:33.052Z,29.77
2022-11-29T15:49:22.035Z,33.45
2022-11-29T15:51:51.593Z,33.67
2022-11-29T15:54:36.791Z,30.67
2022-11-29T15:57:09.343Z,31.37
2022-11-29T15:59:37.701Z,31.27
2022-11-29T16:02:15.906Z,32.38
2022-11-29T16:04:46.779Z,33.58
2022-11-29T16:07:14.967Z,34.78
2022-11-29T16:09:50.309Z,33.20
2022-11-29T16:12:17.834Z,30.73
2022-11-29T16:15:03.713Z,29.35
2022-11-29T16:17:31.808Z,31.55
2022-11-29T16:20:18.833Z,31.75
2022-11-29T16:22:46.238Z,31.87
2022-11-29T16:25:19.078Z,31.55
2022-11-29T16:27:46.475Z,33.60
2022-11-29T16:30:24.443Z,28.95
2022-11-29T16:32:56.879Z,32.60
2022-11-29T16:35:33.228Z,32.53
2022-11-29T16:38:03.531Z,30.38
2022-11-29T16:40:32.173Z,31.42
2022-11-29T16:43:18.627Z,28.23
2022-11-29T16:45:47.021Z,25.90
2022-11-29T16:48:23.302Z,28.63
2022-11-29T16:51:09.603Z,30.23
2022-11-29T16:53:37.550Z,31.73
2022-11-29T16:56:05.487Z,26.85
2022-11-29T16:58:33.524Z,35.58
2022-11-29T17:01:29.647Z,32.70
2022-11-29T17:03:57.993Z,37.30
2022-11-29T17:06:25.299Z,32.05
2022-11-29T17:08:53.464Z,26.63
2022-11-29T17:11:20.763Z,27.98
2022-11-29T17:13:48.908Z,30.20
2022-11-29T17:16:17.804Z,28.98
2022-11-29T17:18:45.412Z,29.35
2022-11-29T17:21:18.393Z,27.98
2022-11-29T17:23:46.052Z,33.95
2022-11-29T17:26:13.315Z,32.03
2022-11-29T17:28:40.768Z,33.00
2022-11-29T17:31:12.011Z,32.08
2022-11-29T17:33:39.484Z,33.75
2022-11-29T17:36:11.296Z,30.42
2022-11-29T17:38:38.588Z,33.57
2022-11-29T17:41:10.075Z,35.78
2022-11-29T17:43:37.423Z,37.85
2022-11-29T17:46:12.115Z,37.40
2022-11-29T17:48:39.656Z,40.70
2022-11-29T17:51:22.850Z,35.73
2022-11-29T17:53:55.463Z,37.55
2022-11-29T17:56:24.784Z,37.47
2022-11-29T17:58:55.826Z,41.28
2022-11-29T18:01:24.780Z,41.03
2022-11-29T18:03:54.164Z,36.77
2022-11-29T18:06:23.153Z,43.40
2022-11-29T18:08:56.242Z,43.28
2022-11-29T18:11:35.330Z,40.13
2022-11-29T18:14:10.428Z,39.53
2022-11-29T18:16:37.865Z,40.30
2022-11-29T18:19:07.003Z,55.33
2022-11-29T18:21:37.023Z,43.40
2022-11-29T18:24:05.357Z,42.08
2022-11-29T18:26:33.223Z,46.22
2022-11-29T18:29:00.666Z,36.97
2022-11-29T18:31:32.828Z,37.92
2022-11-29T18:34:01.315Z,32.53
2022-11-29T18:36:30.519Z,34.30
2022-11-29T18:39:02.573Z,39.65
2022-11-29T18:41:30.255Z,34.40
2022-11-29T18:43:59.278Z,32.88
2022-11-29T18:46:27.621Z,33.72
2022-11-29T18:48:54.996Z,33.75
2022-11-29T18:51:22.311Z,28.33
2022-11-29T18:53:49.578Z,39.17
2022-11-29T18:56:18.641Z,37.15
2022-11-29T18:58:47.341Z,35.08
2022-11-29T19:01:15.994Z,30.98
2022-11-29T19:03:45.596Z,33.33
2022-11-29T19:06:15.400Z,28.23
2022-11-29T19:08:42.925Z,29.25
2022-11-29T19:11:11.783Z,32.95
2022-11-29T19:13:39.291Z,35.50
2022-11-29T19:16:13.079Z,33.47
2022-11-29T19:18:40.520Z,31.43
2022-11-29T19:21:12.397Z,29.25
2022-11-29T19:23:39.942Z,34.90
2022-11-29T19:26:14.361Z,29.17
2022-11-29T19:28:42.998Z,36.13
2022-11-29T19:31:11.103Z,33.00
2022-11-29T19:33:39.196Z,32.08
2022-11-29T19:36:07.890Z,32.30
2022-11-29T19:38:35.720Z,36.30
2022-11-29T19:41:22.476Z,34.03
2022-11-29T19:43:49.854Z,37.30
2022-11-29T19:46:21.777Z,35.00
2022-11-29T19:48:49.355Z,36.47
2022-11-29T19:51:19.530Z,36.75
2022-11-29T19:53:47.056Z,41.25
2022-11-29T19:56:15.868Z,36.63
2022-11-29T19:58:43.731Z,32.70
2022-11-29T20:01:16.690Z,35.42
2022-11-29T20:03:45.105Z,32.72
2022-11-29T20:06:13.635Z,35.35
2022-11-29T20:08:41.157Z,35.77
2022-11-29T20:11:19.410Z,38.63
2022-11-29T20:13:48.023Z,36.42
2022-11-29T20:16:16.018Z,38.05
2022-11-29T20:18:48.929Z,34.88
2022-11-29T20:21:25.684Z,37.40
2022-11-29T20:24:00.150Z,37.80
2022-11-29T20:26:27.903Z,38.75
2022-11-29T20:28:55.163Z,36.97
2022-11-29T20:31:23.240Z,36.75
2022-11-29T20:33:52.029Z,33.77
2022-11-29T20:36:43.247Z,37.97
2022-11-29T20:39:38.903Z,33.10
2022-11-29T20:42:41.535Z,34.50
2022-11-29T20:45:12.291Z,36.88
2022-11-29T20:48:13.162Z,34.93
2022-11-29T20:50:40.570Z,37.53
2022-11-29T20:53:07.769Z,38.05
2022-11-29T20:55:42.444Z,34.95
2022-11-29T20:58:13.761Z,34.47
2022-11-29T21:00:40.999Z,37.43
2022-11-29T21:03:08.272Z,37.67
2022-11-29T21:05:37.965Z,37.05
2022-11-29T21:08:05.386Z,34.08
2022-11-29T21:10:32.666Z,35.53
2022-11-29T21:13:00.436Z,37.63
2022-11-29T21:15:28.106Z,36.58
2022-11-29T21:17:55.726Z,38.58
2022-11-29T21:20:24.637Z,35.20
2022-11-29T21:22:55.039Z,39.22
2022-11-29T21:25:53.662Z,35.27
2022-11-29T21:28:20.957Z,34.65
2022-11-29T21:30:48.512Z,39.10
2022-11-29T21:33:15.969Z,33.30
2022-11-29T21:35:43.256Z,33.05
2022-11-29T21:38:14.913Z,36.13
2022-11-29T21:40:42.355Z,36.53
2022-11-29T21:43:09.587Z,43.20
2022-11-29T21:45:36.879Z,34.72
2022-11-29T21:48:04.307Z,35.15
2022-11-29T21:50:31.565Z,35.67
2022-11-29T21:52:58.741Z,36.13
2022-11-29T21:55:31.748Z,40.40
2022-11-29T21:57:59.578Z,40.65
2022-11-29T22:00:26.872Z,43.60
2022-11-29T22:02:58.982Z,35.17
2022-11-29T22:05:26.233Z,36.55
2022-11-29T22:07:56.456Z,39.72
2022-11-29T22:10:23.815Z,37.58
2022-11-29T22:12:52.606Z,38.78
2022-11-29T22:15:24.508Z,39.27
2022-11-29T22:17:53.483Z,36.20
2022-11-29T22:20:20.825Z,37.08
2022-11-29T22:22:48.724Z,33.88
2022-11-29T22:25:16.085Z,39.05
2022-11-29T22:27:43.423Z,35.17
2022-11-29T22:30:11.079Z,35.90
2022-11-29T22:32:38.422Z,40.58
2022-11-29T22:35:07.157Z,38.72
2022-11-29T22:37:34.460Z,36.08
2022-11-29T22:40:01.685Z,36.67
2022-11-29T22:42:28.942Z,42.40
2022-11-29T22:44:56.190Z,42.95
2022-11-29T22:47:23.483Z,42.70
2022-11-29T22:49:50.691Z,38.45
2022-11-29T22:52:17.994Z,37.47
2022-11-29T22:54:45.775Z,40.45
2022-11-29T22:57:13.330Z,46.47
2022-11-29T22:59:40.534Z,43.03
2022-11-29T23:02:07.886Z,39.75
2022-11-29T23:04:35.207Z,41.47
2022-11-29T23:07:02.685Z,44.72
2022-11-29T23:09:29.908Z,41.22
2022-11-29T23:11:57.251Z,40.78
2022-11-29T23:14:24.623Z,45.08
2022-11-29T23:16:52.074Z,37.20
2022-11-29T23:19:20.001Z,39.78
2022-11-29T23:21:47.428Z,46.10
2022-11-29T23:24:15.071Z,39.53
2022-11-29T23:26:44.859Z,40.67
2022-11-29T23:29:13.832Z,41.20
2022-11-29T23:31:41.215Z,38.63
2022-11-29T23:34:08.538Z,39.17
2022-11-29T23:36:35.925Z,37.20
2022-11-29T23:39:04.991Z,39.50
2022-11-29T23:41:32.917Z,33.00
2022-11-29T23:44:00.135Z,34.25
2022-11-29T23:46:27.423Z,40.05
2022-11-29T23:48:54.657Z,34.38
2022-11-29T23:51:21.930Z,36.15
2022-11-29T23:53:52.581Z,36.10
2022-11-29T23:56:19.983Z,35.72
2022-11-29T23:58:47.463Z,36.17
